sensor_id;sensor_type;location;lat;lon;timestamp;P1;durP1;ratioP1;P2;durP2;ratioP2
77016;SDS011;65949;53.132;17.930;2024-03-23T00:56:14;17.60;;;6.10;;
77016;SDS011;65949;53.132;17.930;2024-03-23T00:58:40;17.60;;;4.30;;
77016;SDS011;65949;53.132;17.930;2024-03-23T01:01:07;12.80;;;3.80;;
77016;SDS011;65949;53.132;17.930;2024-03-23T01:03:33;14.60;;;4.10;;
77016;SDS011;65949;53.132;17.930;2024-03-23T01:06:01;19.50;;;4.70;;
77016;SDS011;65949;53.132;17.930;2024-03-23T01:08:28;14.80;;;3.40;;
77016;SDS011;65949;53.132;17.930;2024-03-23T01:10:58;15.80;;;3.60;;
77016;SDS011;65949;53.132;17.930;2024-03-23T01:13:26;13.00;;;3.40;;
77016;SDS011;65949;53.132;17.930;2024-03-23T01:15:54;13.50;;;3.80;;
77016;SDS011;65949;53.132;17.930;2024-03-23T01:18:23;16.00;;;3.00;;
77016;SDS011;65949;53.132;17.930;2024-03-23T01:20:50;17.50;;;3.20;;
77016;SDS011;65949;53.132;17.930;2024-03-23T01:23:16;15.00;;;3.80;;
77016;SDS011;65949;53.132;17.930;2024-03-23T01:25:43;17.60;;;4.20;;
77016;SDS011;65949;53.132;17.930;2024-03-23T01:28:09;17.40;;;4.40;;
77016;SDS011;65949;53.132;17.930;2024-03-23T01:30:36;17.20;;;5.80;;
77016;SDS011;65949;53.132;17.930;2024-03-23T01:33:02;23.20;;;8.40;;
77016;SDS011;65949;53.132;17.930;2024-03-23T01:35:29;24.70;;;10.10;;
77016;SDS011;65949;53.132;17.930;2024-03-23T01:37:55;34.20;;;15.90;;
77016;SDS011;65949;53.132;17.930;2024-03-23T01:40:22;33.20;;;17.30;;
77016;SDS011;65949;53.132;17.930;2024-03-23T01:42:58;35.20;;;17.20;;
77016;SDS011;65949;53.132;17.930;2024-03-23T01:45:29;22.00;;;9.10;;
77016;SDS011;65949;53.132;17.930;2024-03-23T01:47:57;21.30;;;8.60;;
77016;SDS011;65949;53.132;17.930;2024-03-23T01:50:25;15.70;;;5.30;;
77016;SDS011;65949;53.132;17.930;2024-03-23T01:52:53;18.00;;;4.30;;
77016;SDS011;65949;53.132;17.930;2024-03-23T01:55:20;17.40;;;4.30;;
77016;SDS011;65949;53.132;17.930;2024-03-23T01:57:47;12.40;;;3.40;;
77016;SDS011;65949;53.132;17.930;2024-03-23T02:00:13;12.80;;;3.00;;
77016;SDS011;65949;53.132;17.930;2024-03-23T02:05:13;15.50;;;3.30;;
77016;SDS011;65949;53.132;17.930;2024-03-23T02:07:40;16.50;;;4.20;;
77016;SDS011;65949;53.132;17.930;2024-03-23T02:10:08;15.20;;;3.50;;
77016;SDS011;65949;53.132;17.930;2024-03-23T02:12:44;17.60;;;3.20;;
77016;SDS011;65949;53.132;17.930;2024-03-23T02:15:11;17.80;;;3.10;;
77016;SDS011;65949;53.132;17.930;2024-03-23T02:17:37;16.20;;;3.00;;
77016;SDS011;65949;53.132;17.930;2024-03-23T02:20:04;17.20;;;3.40;;
77016;SDS011;65949;53.132;17.930;2024-03-23T02:22:35;17.60;;;3.30;;
77016;SDS011;65949;53.132;17.930;2024-03-23T02:25:06;14.70;;;3.40;;
77016;SDS011;65949;53.132;17.930;2024-03-23T02:27:33;16.40;;;3.60;;
77016;SDS011;65949;53.132;17.930;2024-03-23T02:30:02;16.80;;;4.00;;
77016;SDS011;65949;53.132;17.930;2024-03-23T02:32:29;19.50;;;3.70;;
77016;SDS011;65949;53.132;17.930;2024-03-23T02:34:55;17.20;;;3.70;;
77016;SDS011;65949;53.132;17.930;2024-03-23T02:37:22;18.90;;;4.90;;
77016;SDS011;65949;53.132;17.930;2024-03-23T02:39:48;18.30;;;4.50;;
77016;SDS011;65949;53.132;17.930;2024-03-23T02:42:15;16.50;;;4.00;;
77016;SDS011;65949;53.132;17.930;2024-03-23T02:44:44;15.20;;;3.80;;
77016;SDS011;65949;53.132;17.930;2024-03-23T02:47:11;16.30;;;5.10;;
77016;SDS011;65949;53.132;17.930;2024-03-23T02:49:37;17.60;;;4.70;;
77016;SDS011;65949;53.132;17.930;2024-03-23T02:52:04;16.60;;;3.10;;
77016;SDS011;65949;53.132;17.930;2024-03-23T02:54:30;17.20;;;4.30;;
77016;SDS011;65949;53.132;17.930;2024-03-23T02:56:57;18.60;;;4.40;;
77016;SDS011;65949;53.132;17.930;2024-03-23T02:59:23;17.60;;;4.10;;
77016;SDS011;65949;53.132;17.930;2024-03-23T03:01:50;16.00;;;4.50;;
77016;SDS011;65949;53.132;17.930;2024-03-23T03:04:17;19.30;;;5.40;;
77016;SDS011;65949;53.132;17.930;2024-03-23T03:06:46;19.40;;;5.60;;
77016;SDS011;65949;53.132;17.930;2024-03-23T03:09:13;17.20;;;4.90;;
77016;SDS011;65949;53.132;17.930;2024-03-23T03:11:40;14.00;;;4.40;;
77016;SDS011;65949;53.132;17.930;2024-03-23T03:14:06;18.30;;;5.40;;
77016;SDS011;65949;53.132;17.930;2024-03-23T03:16:34;16.20;;;4.20;;
77016;SDS011;65949;53.132;17.930;2024-03-23T03:19:00;19.20;;;4.80;;
77016;SDS011;65949;53.132;17.930;2024-03-23T03:21:27;16.20;;;5.10;;
77016;SDS011;65949;53.132;17.930;2024-03-23T03:23:54;18.10;;;5.00;;
77016;SDS011;65949;53.132;17.930;2024-03-23T03:26:22;17.80;;;5.10;;
77016;SDS011;65949;53.132;17.930;2024-03-23T03:28:50;19.10;;;5.40;;
77016;SDS011;65949;53.132;17.930;2024-03-23T03:31:20;16.90;;;5.10;;
77016;SDS011;65949;53.132;17.930;2024-03-23T03:33:47;17.50;;;5.60;;
77016;SDS011;65949;53.132;17.930;2024-03-23T03:36:16;19.50;;;5.30;;
77016;SDS011;65949;53.132;17.930;2024-03-23T03:38:43;17.60;;;5.80;;
77016;SDS011;65949;53.132;17.930;2024-03-23T03:41:09;17.60;;;4.90;;
77016;SDS011;65949;53.132;17.930;2024-03-23T03:43:36;18.60;;;4.60;;
77016;SDS011;65949;53.132;17.930;2024-03-23T03:46:03;15.90;;;4.00;;
77016;SDS011;65949;53.132;17.930;2024-03-23T03:48:29;17.00;;;4.80;;
77016;SDS011;65949;53.132;17.930;2024-03-23T03:50:56;16.20;;;4.60;;
77016;SDS011;65949;53.132;17.930;2024-03-23T03:53:22;16.60;;;4.60;;
77016;SDS011;65949;53.132;17.930;2024-03-23T03:55:49;18.70;;;4.40;;
77016;SDS011;65949;53.132;17.930;2024-03-23T03:58:15;13.20;;;4.20;;
77016;SDS011;65949;53.132;17.930;2024-03-23T04:00:42;15.80;;;4.80;;
77016;SDS011;65949;53.132;17.930;2024-03-23T04:03:08;19.70;;;5.20;;
77016;SDS011;65949;53.132;17.930;2024-03-23T04:05:35;20.70;;;5.30;;
77016;SDS011;65949;53.132;17.930;2024-03-23T04:08:01;21.40;;;5.20;;
77016;SDS011;65949;53.132;17.930;2024-03-23T04:10:28;15.00;;;4.50;;
77016;SDS011;65949;53.132;17.930;2024-03-23T04:12:55;22.80;;;4.50;;
77016;SDS011;65949;53.132;17.930;2024-03-23T04:15:21;19.10;;;3.60;;
77016;SDS011;65949;53.132;17.930;2024-03-23T04:17:48;19.90;;;3.80;;
77016;SDS011;65949;53.132;17.930;2024-03-23T04:20:14;16.30;;;4.50;;
77016;SDS011;65949;53.132;17.930;2024-03-23T04:22:43;14.30;;;3.20;;
77016;SDS011;65949;53.132;17.930;2024-03-23T04:25:10;14.40;;;3.90;;
77016;SDS011;65949;53.132;17.930;2024-03-23T04:27:37;20.40;;;5.50;;
77016;SDS011;65949;53.132;17.930;2024-03-23T04:30:03;18.10;;;5.20;;
77016;SDS011;65949;53.132;17.930;2024-03-23T04:32:37;19.90;;;6.00;;
77016;SDS011;65949;53.132;17.930;2024-03-23T04:35:04;18.40;;;5.60;;
77016;SDS011;65949;53.132;17.930;2024-03-23T04:37:40;20.80;;;5.20;;
77016;SDS011;65949;53.132;17.930;2024-03-23T04:40:07;15.90;;;5.10;;
77016;SDS011;65949;53.132;17.930;2024-03-23T04:42:34;20.20;;;4.60;;
77016;SDS011;65949;53.132;17.930;2024-03-23T04:45:00;17.50;;;4.60;;
77016;SDS011;65949;53.132;17.930;2024-03-23T04:47:27;18.20;;;4.50;;
77016;SDS011;65949;53.132;17.930;2024-03-23T04:49:55;18.40;;;4.10;;
77016;SDS011;65949;53.132;17.930;2024-03-23T04:52:22;24.60;;;4.90;;
77016;SDS011;65949;53.132;17.930;2024-03-23T04:54:48;16.60;;;4.80;;
77016;SDS011;65949;53.132;17.930;2024-03-23T04:57:15;21.10;;;5.00;;
77016;SDS011;65949;53.132;17.930;2024-03-23T04:59:47;19.30;;;5.20;;
77016;SDS011;65949;53.132;17.930;2024-03-23T05:02:14;17.60;;;3.80;;
77016;SDS011;65949;53.132;17.930;2024-03-23T05:04:41;16.60;;;4.30;;
77016;SDS011;65949;53.132;17.930;2024-03-23T05:07:08;20.10;;;3.80;;
77016;SDS011;65949;53.132;17.930;2024-03-23T05:09:35;20.20;;;4.20;;
77016;SDS011;65949;53.132;17.930;2024-03-23T05:12:01;16.60;;;3.60;;
77016;SDS011;65949;53.132;17.930;2024-03-23T05:14:28;20.70;;;5.60;;
77016;SDS011;65949;53.132;17.930;2024-03-23T05:16:55;27.20;;;8.20;;
77016;SDS011;65949;53.132;17.930;2024-03-23T05:19:22;24.30;;;8.30;;
77016;SDS011;65949;53.132;17.930;2024-03-23T05:21:49;19.90;;;5.70;;
77016;SDS011;65949;53.132;17.930;2024-03-23T05:24:15;22.40;;;5.20;;
77016;SDS011;65949;53.132;17.930;2024-03-23T05:26:42;20.50;;;4.90;;
77016;SDS011;65949;53.132;17.930;2024-03-23T05:29:08;20.60;;;5.20;;
77016;SDS011;65949;53.132;17.930;2024-03-23T05:31:39;17.60;;;5.00;;
77016;SDS011;65949;53.132;17.930;2024-03-23T05:34:08;15.50;;;3.70;;
77016;SDS011;65949;53.132;17.930;2024-03-23T05:36:35;14.30;;;4.00;;
77016;SDS011;65949;53.132;17.930;2024-03-23T05:39:03;16.90;;;3.90;;
77016;SDS011;65949;53.132;17.930;2024-03-23T05:41:29;20.20;;;5.30;;
77016;SDS011;65949;53.132;17.930;2024-03-23T05:43:56;18.60;;;5.70;;
77016;SDS011;65949;53.132;17.930;2024-03-23T05:46:23;24.50;;;9.20;;
77016;SDS011;65949;53.132;17.930;2024-03-23T05:48:50;24.40;;;10.30;;
77016;SDS011;65949;53.132;17.930;2024-03-23T05:51:16;21.10;;;8.00;;
77016;SDS011;65949;53.132;17.930;2024-03-23T05:53:43;21.40;;;5.80;;
77016;SDS011;65949;53.132;17.930;2024-03-23T05:56:10;20.50;;;6.90;;
77016;SDS011;65949;53.132;17.930;2024-03-23T05:58:37;27.60;;;7.20;;
77016;SDS011;65949;53.132;17.930;2024-03-23T06:01:03;21.20;;;8.60;;
77016;SDS011;65949;53.132;17.930;2024-03-23T06:03:30;19.90;;;6.20;;
77016;SDS011;65949;53.132;17.930;2024-03-23T06:05:57;21.40;;;6.50;;
77016;SDS011;65949;53.132;17.930;2024-03-23T06:08:23;20.70;;;6.10;;
77016;SDS011;65949;53.132;17.930;2024-03-23T06:10:50;21.00;;;6.40;;
77016;SDS011;65949;53.132;17.930;2024-03-23T06:13:17;20.10;;;5.60;;
77016;SDS011;65949;53.132;17.930;2024-03-23T06:15:49;44.60;;;12.80;;
77016;SDS011;65949;53.132;17.930;2024-03-23T06:18:15;31.70;;;8.50;;
77016;SDS011;65949;53.132;17.930;2024-03-23T06:20:42;41.10;;;11.50;;
77016;SDS011;65949;53.132;17.930;2024-03-23T06:23:08;26.50;;;6.30;;
77016;SDS011;65949;53.132;17.930;2024-03-23T06:25:35;22.40;;;6.50;;
77016;SDS011;65949;53.132;17.930;2024-03-23T06:28:01;18.60;;;5.60;;
77016;SDS011;65949;53.132;17.930;2024-03-23T06:30:29;17.40;;;5.80;;
77016;SDS011;65949;53.132;17.930;2024-03-23T06:32:56;20.60;;;5.80;;
77016;SDS011;65949;53.132;17.930;2024-03-23T06:35:22;24.00;;;7.40;;
77016;SDS011;65949;53.132;17.930;2024-03-23T06:37:49;21.70;;;6.60;;
77016;SDS011;65949;53.132;17.930;2024-03-23T06:40:15;18.10;;;5.30;;
77016;SDS011;65949;53.132;17.930;2024-03-23T06:42:42;14.30;;;4.20;;
77016;SDS011;65949;53.132;17.930;2024-03-23T06:45:09;18.40;;;4.80;;
77016;SDS011;65949;53.132;17.930;2024-03-23T06:47:36;16.90;;;4.60;;
77016;SDS011;65949;53.132;17.930;2024-03-23T06:50:03;15.50;;;4.10;;
77016;SDS011;65949;53.132;17.930;2024-03-23T06:52:30;15.20;;;4.60;;
77016;SDS011;65949;53.132;17.930;2024-03-23T06:54:57;22.00;;;8.40;;
77016;SDS011;65949;53.132;17.930;2024-03-23T06:57:24;21.30;;;8.00;;
77016;SDS011;65949;53.132;17.930;2024-03-23T06:59:51;17.30;;;5.60;;
77016;SDS011;65949;53.132;17.930;2024-03-23T07:02:17;17.20;;;4.00;;
77016;SDS011;65949;53.132;17.930;2024-03-23T07:04:44;21.70;;;5.10;;
77016;SDS011;65949;53.132;17.930;2024-03-23T07:07:10;15.40;;;3.90;;
77016;SDS011;65949;53.132;17.930;2024-03-23T07:09:37;18.60;;;4.30;;
77016;SDS011;65949;53.132;17.930;2024-03-23T07:12:04;17.70;;;4.20;;
77016;SDS011;65949;53.132;17.930;2024-03-23T07:14:31;18.20;;;3.90;;
77016;SDS011;65949;53.132;17.930;2024-03-23T07:16:57;14.80;;;3.40;;
77016;SDS011;65949;53.132;17.930;2024-03-23T07:19:24;17.50;;;5.20;;
77016;SDS011;65949;53.132;17.930;2024-03-23T07:21:51;21.50;;;5.30;;
77016;SDS011;65949;53.132;17.930;2024-03-23T07:24:17;16.40;;;4.20;;
77016;SDS011;65949;53.132;17.930;2024-03-23T07:26:44;15.90;;;4.40;;
77016;SDS011;65949;53.132;17.930;2024-03-23T07:29:10;17.40;;;4.00;;
77016;SDS011;65949;53.132;17.930;2024-03-23T07:31:37;20.60;;;5.40;;
77016;SDS011;65949;53.132;17.930;2024-03-23T07:34:05;17.10;;;4.30;;
77016;SDS011;65949;53.132;17.930;2024-03-23T07:36:32;14.20;;;4.00;;
77016;SDS011;65949;53.132;17.930;2024-03-23T07:38:58;15.90;;;4.50;;
77016;SDS011;65949;53.132;17.930;2024-03-23T07:41:25;18.10;;;3.90;;
77016;SDS011;65949;53.132;17.930;2024-03-23T07:43:53;14.40;;;3.20;;
77016;SDS011;65949;53.132;17.930;2024-03-23T07:46:20;15.30;;;2.80;;
77016;SDS011;65949;53.132;17.930;2024-03-23T07:48:47;16.60;;;3.90;;
77016;SDS011;65949;53.132;17.930;2024-03-23T07:51:17;17.70;;;3.80;;
77016;SDS011;65949;53.132;17.930;2024-03-23T07:53:46;19.40;;;6.60;;
77016;SDS011;65949;53.132;17.930;2024-03-23T07:56:15;23.50;;;7.00;;
77016;SDS011;65949;53.132;17.930;2024-03-23T07:58:42;17.80;;;5.50;;
77016;SDS011;65949;53.132;17.930;2024-03-23T08:01:10;21.10;;;5.40;;
77016;SDS011;65949;53.132;17.930;2024-03-23T08:03:41;17.80;;;4.40;;
77016;SDS011;65949;53.132;17.930;2024-03-23T08:06:19;15.90;;;4.50;;
77016;SDS011;65949;53.132;17.930;2024-03-23T08:08:48;18.60;;;4.90;;
77016;SDS011;65949;53.132;17.930;2024-03-23T08:11:29;15.60;;;3.80;;
77016;SDS011;65949;53.132;17.930;2024-03-23T08:13:56;11.40;;;2.90;;
77016;SDS011;65949;53.132;17.930;2024-03-23T08:16:24;12.40;;;3.10;;
77016;SDS011;65949;53.132;17.930;2024-03-23T08:18:51;16.60;;;3.90;;
77016;SDS011;65949;53.132;17.930;2024-03-23T08:21:18;15.90;;;4.50;;
77016;SDS011;65949;53.132;17.930;2024-03-23T08:23:45;13.70;;;3.80;;
77016;SDS011;65949;53.132;17.930;2024-03-23T08:26:12;11.10;;;3.00;;
77016;SDS011;65949;53.132;17.930;2024-03-23T08:28:41;11.90;;;3.20;;
77016;SDS011;65949;53.132;17.930;2024-03-23T08:31:08;11.30;;;3.00;;
77016;SDS011;65949;53.132;17.930;2024-03-23T08:33:36;10.10;;;2.20;;
77016;SDS011;65949;53.132;17.930;2024-03-23T08:36:08;13.90;;;2.80;;
77016;SDS011;65949;53.132;17.930;2024-03-23T08:38:35;12.50;;;2.60;;
77016;SDS011;65949;53.132;17.930;2024-03-23T08:41:06;11.30;;;2.20;;
77016;SDS011;65949;53.132;17.930;2024-03-23T08:43:40;13.70;;;2.50;;
77016;SDS011;65949;53.132;17.930;2024-03-23T08:46:11;13.10;;;3.40;;
77016;SDS011;65949;53.132;17.930;2024-03-23T08:48:40;17.00;;;4.20;;
77016;SDS011;65949;53.132;17.930;2024-03-23T08:51:15;14.90;;;3.20;;
77016;SDS011;65949;53.132;17.930;2024-03-23T08:53:43;14.10;;;3.80;;
77016;SDS011;65949;53.132;17.930;2024-03-23T08:56:10;13.00;;;3.50;;
77016;SDS011;65949;53.132;17.930;2024-03-23T08:58:38;15.60;;;3.60;;
77016;SDS011;65949;53.132;17.930;2024-03-23T09:01:08;11.60;;;3.00;;
77016;SDS011;65949;53.132;17.930;2024-03-23T09:03:36;14.10;;;2.60;;
77016;SDS011;65949;53.132;17.930;2024-03-23T09:06:07;7.50;;;2.30;;
77016;SDS011;65949;53.132;17.930;2024-03-23T09:08:35;9.40;;;1.50;;
77016;SDS011;65949;53.132;17.930;2024-03-23T09:11:03;7.20;;;1.60;;
77016;SDS011;65949;53.132;17.930;2024-03-23T09:13:34;10.40;;;2.10;;
77016;SDS011;65949;53.132;17.930;2024-03-23T09:16:04;15.20;;;5.20;;
77016;SDS011;65949;53.132;17.930;2024-03-23T09:18:34;12.50;;;2.60;;
77016;SDS011;65949;53.132;17.930;2024-03-23T09:21:02;7.70;;;1.80;;
77016;SDS011;65949;53.132;17.930;2024-03-23T09:23:37;6.40;;;1.20;;
77016;SDS011;65949;53.132;17.930;2024-03-23T09:26:04;6.40;;;1.20;;
77016;SDS011;65949;53.132;17.930;2024-03-23T09:28:31;6.70;;;1.40;;
77016;SDS011;65949;53.132;17.930;2024-03-23T09:31:04;6.90;;;1.00;;
77016;SDS011;65949;53.132;17.930;2024-03-23T09:33:30;9.50;;;1.20;;
77016;SDS011;65949;53.132;17.930;2024-03-23T09:35:57;6.40;;;1.00;;
77016;SDS011;65949;53.132;17.930;2024-03-23T09:38:24;7.10;;;0.90;;
77016;SDS011;65949;53.132;17.930;2024-03-23T09:40:52;7.60;;;1.20;;
77016;SDS011;65949;53.132;17.930;2024-03-23T09:43:19;10.60;;;1.20;;
77016;SDS011;65949;53.132;17.930;2024-03-23T09:45:46;8.40;;;1.10;;
77016;SDS011;65949;53.132;17.930;2024-03-23T09:48:12;8.20;;;1.20;;
77016;SDS011;65949;53.132;17.930;2024-03-23T09:50:39;8.40;;;1.30;;
77016;SDS011;65949;53.132;17.930;2024-03-23T09:53:07;8.50;;;1.80;;
77016;SDS011;65949;53.132;17.930;2024-03-23T09:55:34;15.30;;;3.80;;
77016;SDS011;65949;53.132;17.930;2024-03-23T09:58:04;30.60;;;11.40;;
77016;SDS011;65949;53.132;17.930;2024-03-23T10:00:32;54.10;;;21.20;;
77016;SDS011;65949;53.132;17.930;2024-03-23T10:03:00;19.00;;;8.70;;
77016;SDS011;65949;53.132;17.930;2024-03-23T10:05:30;8.60;;;3.40;;
77016;SDS011;65949;53.132;17.930;2024-03-23T10:08:01;13.40;;;5.20;;
77016;SDS011;65949;53.132;17.930;2024-03-23T10:10:44;12.20;;;4.10;;
77016;SDS011;65949;53.132;17.930;2024-03-23T10:13:25;34.50;;;26.40;;
77016;SDS011;65949;53.132;17.930;2024-03-23T10:15:56;33.40;;;24.80;;
77016;SDS011;65949;53.132;17.930;2024-03-23T10:18:27;22.20;;;14.60;;
77016;SDS011;65949;53.132;17.930;2024-03-23T10:23:38;7.90;;;3.00;;
77016;SDS011;65949;53.132;17.930;2024-03-23T10:26:24;8.50;;;2.50;;
77016;SDS011;65949;53.132;17.930;2024-03-23T10:28:55;5.00;;;1.50;;
77016;SDS011;65949;53.132;17.930;2024-03-23T10:31:34;7.10;;;1.60;;
77016;SDS011;65949;53.132;17.930;2024-03-23T10:34:04;7.40;;;1.00;;
77016;SDS011;65949;53.132;17.930;2024-03-23T10:36:30;4.50;;;0.70;;
77016;SDS011;65949;53.132;17.930;2024-03-23T10:38:57;3.60;;;0.60;;
77016;SDS011;65949;53.132;17.930;2024-03-23T10:41:27;4.90;;;0.60;;
77016;SDS011;65949;53.132;17.930;2024-03-23T10:43:55;5.50;;;0.80;;
77016;SDS011;65949;53.132;17.930;2024-03-23T10:46:24;4.20;;;0.50;;
77016;SDS011;65949;53.132;17.930;2024-03-23T10:48:51;5.50;;;0.90;;
77016;SDS011;65949;53.132;17.930;2024-03-23T10:51:17;7.40;;;1.10;;
77016;SDS011;65949;53.132;17.930;2024-03-23T10:53:44;7.00;;;0.90;;
77016;SDS011;65949;53.132;17.930;2024-03-23T10:56:12;6.60;;;0.90;;
77016;SDS011;65949;53.132;17.930;2024-03-23T10:58:43;6.40;;;0.80;;
77016;SDS011;65949;53.132;17.930;2024-03-23T11:01:13;5.70;;;1.00;;
77016;SDS011;65949;53.132;17.930;2024-03-23T11:03:44;8.50;;;1.70;;
77016;SDS011;65949;53.132;17.930;2024-03-23T11:06:33;7.50;;;1.20;;
77016;SDS011;65949;53.132;17.930;2024-03-23T11:12:28;4.00;;;0.80;;
77016;SDS011;65949;53.132;17.930;2024-03-23T11:15:00;7.00;;;0.90;;
77016;SDS011;65949;53.132;17.930;2024-03-23T11:17:29;7.80;;;1.10;;
77016;SDS011;65949;53.132;17.930;2024-03-23T11:19:56;7.20;;;1.20;;
77016;SDS011;65949;53.132;17.930;2024-03-23T11:27:43;6.40;;;1.20;;
77016;SDS011;65949;53.132;17.930;2024-03-23T11:30:15;6.60;;;1.10;;
77016;SDS011;65949;53.132;17.930;2024-03-23T11:32:52;10.00;;;1.60;;
77016;SDS011;65949;53.132;17.930;2024-03-23T11:35:26;7.00;;;1.40;;
77016;SDS011;65949;53.132;17.930;2024-03-23T11:40:30;9.20;;;1.60;;
77016;SDS011;65949;53.132;17.930;2024-03-23T11:42:58;9.10;;;1.70;;
77016;SDS011;65949;53.132;17.930;2024-03-23T11:45:25;7.30;;;1.30;;
77016;SDS011;65949;53.132;17.930;2024-03-23T11:48:01;8.50;;;1.40;;
77016;SDS011;65949;53.132;17.930;2024-03-23T11:50:32;7.90;;;1.50;;
77016;SDS011;65949;53.132;17.930;2024-03-23T11:55:49;8.90;;;2.20;;
77016;SDS011;65949;53.132;17.930;2024-03-23T11:58:24;6.70;;;1.20;;
77016;SDS011;65949;53.132;17.930;2024-03-23T12:00:58;7.80;;;1.60;;
77016;SDS011;65949;53.132;17.930;2024-03-23T12:03:26;6.70;;;1.40;;
77016;SDS011;65949;53.132;17.930;2024-03-23T12:05:59;7.60;;;2.00;;
77016;SDS011;65949;53.132;17.930;2024-03-23T12:11:28;8.20;;;2.40;;
77016;SDS011;65949;53.132;17.930;2024-03-23T12:13:48;13.30;;;3.70;;
77016;SDS011;65949;53.132;17.930;2024-03-23T12:16:17;8.40;;;2.60;;
77016;SDS011;65949;53.132;17.930;2024-03-23T12:18:49;10.10;;;2.30;;
77016;SDS011;65949;53.132;17.930;2024-03-23T12:21:17;9.20;;;2.50;;
77016;SDS011;65949;53.132;17.930;2024-03-23T12:23:44;8.30;;;2.20;;
77016;SDS011;65949;53.132;17.930;2024-03-23T12:26:13;10.90;;;3.30;;
77016;SDS011;65949;53.132;17.930;2024-03-23T12:28:39;12.20;;;3.40;;
77016;SDS011;65949;53.132;17.930;2024-03-23T12:31:06;12.10;;;4.40;;
77016;SDS011;65949;53.132;17.930;2024-03-23T12:33:33;10.50;;;3.30;;
77016;SDS011;65949;53.132;17.930;2024-03-23T12:35:59;9.50;;;3.20;;
77016;SDS011;65949;53.132;17.930;2024-03-23T12:38:26;13.10;;;2.80;;
77016;SDS011;65949;53.132;17.930;2024-03-23T12:40:52;11.00;;;3.40;;
77016;SDS011;65949;53.132;17.930;2024-03-23T12:43:19;13.40;;;4.20;;
77016;SDS011;65949;53.132;17.930;2024-03-23T12:45:46;12.60;;;3.70;;
77016;SDS011;65949;53.132;17.930;2024-03-23T12:48:13;10.20;;;3.40;;
77016;SDS011;65949;53.132;17.930;2024-03-23T12:50:40;10.30;;;2.90;;
77016;SDS011;65949;53.132;17.930;2024-03-23T12:53:07;8.90;;;2.90;;
77016;SDS011;65949;53.132;17.930;2024-03-23T12:55:36;8.30;;;2.60;;
77016;SDS011;65949;53.132;17.930;2024-03-23T12:58:03;11.20;;;4.30;;
77016;SDS011;65949;53.132;17.930;2024-03-23T13:00:31;10.20;;;3.10;;
77016;SDS011;65949;53.132;17.930;2024-03-23T13:02:57;9.90;;;3.70;;
77016;SDS011;65949;53.132;17.930;2024-03-23T13:05:24;7.30;;;2.50;;
77016;SDS011;65949;53.132;17.930;2024-03-23T13:07:51;8.30;;;2.80;;
77016;SDS011;65949;53.132;17.930;2024-03-23T13:10:17;12.40;;;4.90;;
77016;SDS011;65949;53.132;17.930;2024-03-23T13:12:44;13.50;;;6.30;;
77016;SDS011;65949;53.132;17.930;2024-03-23T13:15:10;16.50;;;6.70;;
77016;SDS011;65949;53.132;17.930;2024-03-23T13:17:37;9.70;;;2.90;;
77016;SDS011;65949;53.132;17.930;2024-03-23T13:20:04;18.90;;;7.10;;
77016;SDS011;65949;53.132;17.930;2024-03-23T13:22:31;9.70;;;4.10;;
77016;SDS011;65949;53.132;17.930;2024-03-23T13:24:57;9.40;;;4.20;;
77016;SDS011;65949;53.132;17.930;2024-03-23T13:27:26;9.10;;;5.40;;
77016;SDS011;65949;53.132;17.930;2024-03-23T13:29:52;12.00;;;7.20;;
77016;SDS011;65949;53.132;17.930;2024-03-23T13:32:19;7.80;;;4.30;;
77016;SDS011;65949;53.132;17.930;2024-03-23T13:34:45;7.20;;;3.70;;
77016;SDS011;65949;53.132;17.930;2024-03-23T13:37:16;8.00;;;3.60;;
77016;SDS011;65949;53.132;17.930;2024-03-23T13:39:43;8.40;;;3.70;;
77016;SDS011;65949;53.132;17.930;2024-03-23T13:42:09;12.20;;;4.30;;
77016;SDS011;65949;53.132;17.930;2024-03-23T13:44:36;6.10;;;2.00;;
77016;SDS011;65949;53.132;17.930;2024-03-23T13:47:02;8.80;;;2.50;;
77016;SDS011;65949;53.132;17.930;2024-03-23T13:49:30;6.90;;;1.60;;
77016;SDS011;65949;53.132;17.930;2024-03-23T13:51:58;4.60;;;1.60;;
77016;SDS011;65949;53.132;17.930;2024-03-23T13:54:26;5.60;;;1.50;;
77016;SDS011;65949;53.132;17.930;2024-03-23T13:56:53;5.60;;;1.60;;
77016;SDS011;65949;53.132;17.930;2024-03-23T13:59:21;5.70;;;1.50;;
77016;SDS011;65949;53.132;17.930;2024-03-23T14:01:51;5.00;;;1.10;;
77016;SDS011;65949;53.132;17.930;2024-03-23T14:04:18;5.70;;;1.40;;
77016;SDS011;65949;53.132;17.930;2024-03-23T14:06:49;5.80;;;1.60;;
77016;SDS011;65949;53.132;17.930;2024-03-23T14:09:16;7.50;;;1.90;;
77016;SDS011;65949;53.132;17.930;2024-03-23T14:11:47;7.00;;;2.20;;
77016;SDS011;65949;53.132;17.930;2024-03-23T14:14:14;9.10;;;2.90;;
77016;SDS011;65949;53.132;17.930;2024-03-23T14:16:43;8.40;;;3.00;;
77016;SDS011;65949;53.132;17.930;2024-03-23T14:19:10;9.50;;;3.20;;
77016;SDS011;65949;53.132;17.930;2024-03-23T14:21:37;10.80;;;3.50;;
77016;SDS011;65949;53.132;17.930;2024-03-23T14:24:04;9.80;;;3.10;;
77016;SDS011;65949;53.132;17.930;2024-03-23T14:26:31;8.80;;;2.50;;
77016;SDS011;65949;53.132;17.930;2024-03-23T14:28:57;9.50;;;3.30;;
77016;SDS011;65949;53.132;17.930;2024-03-23T14:31:24;8.70;;;3.10;;
77016;SDS011;65949;53.132;17.930;2024-03-23T14:33:51;8.60;;;2.70;;
77016;SDS011;65949;53.132;17.930;2024-03-23T14:36:18;8.00;;;3.40;;
77016;SDS011;65949;53.132;17.930;2024-03-23T14:38:48;10.80;;;3.70;;
77016;SDS011;65949;53.132;17.930;2024-03-23T14:41:15;12.90;;;4.70;;
77016;SDS011;65949;53.132;17.930;2024-03-23T14:43:42;9.90;;;3.00;;
77016;SDS011;65949;53.132;17.930;2024-03-23T14:46:15;7.40;;;2.50;;
77016;SDS011;65949;53.132;17.930;2024-03-23T14:48:43;8.00;;;2.70;;
77016;SDS011;65949;53.132;17.930;2024-03-23T14:51:10;9.80;;;3.10;;
77016;SDS011;65949;53.132;17.930;2024-03-23T14:53:38;11.60;;;3.30;;
77016;SDS011;65949;53.132;17.930;2024-03-23T14:56:11;8.80;;;2.30;;
77016;SDS011;65949;53.132;17.930;2024-03-23T14:58:41;7.60;;;2.80;;
77016;SDS011;65949;53.132;17.930;2024-03-23T15:01:08;7.30;;;2.90;;
77016;SDS011;65949;53.132;17.930;2024-03-23T15:03:39;11.10;;;4.50;;
77016;SDS011;65949;53.132;17.930;2024-03-23T15:06:06;10.80;;;3.10;;
77016;SDS011;65949;53.132;17.930;2024-03-23T15:08:35;15.80;;;4.80;;
77016;SDS011;65949;53.132;17.930;2024-03-23T15:11:03;16.20;;;5.10;;
77016;SDS011;65949;53.132;17.930;2024-03-23T15:13:32;13.50;;;4.40;;
77016;SDS011;65949;53.132;17.930;2024-03-23T15:15:59;12.30;;;4.00;;
77016;SDS011;65949;53.132;17.930;2024-03-23T15:18:26;12.60;;;4.70;;
77016;SDS011;65949;53.132;17.930;2024-03-23T15:20:55;12.70;;;4.50;;
77016;SDS011;65949;53.132;17.930;2024-03-23T15:23:22;12.90;;;4.10;;
77016;SDS011;65949;53.132;17.930;2024-03-23T15:25:55;12.90;;;4.60;;
77016;SDS011;65949;53.132;17.930;2024-03-23T15:28:22;10.80;;;3.50;;
77016;SDS011;65949;53.132;17.930;2024-03-23T15:30:50;7.90;;;2.20;;
77016;SDS011;65949;53.132;17.930;2024-03-23T15:33:16;8.00;;;2.00;;
77016;SDS011;65949;53.132;17.930;2024-03-23T15:35:43;10.10;;;2.50;;
77016;SDS011;65949;53.132;17.930;2024-03-23T15:38:09;6.10;;;1.90;;
77016;SDS011;65949;53.132;17.930;2024-03-23T15:40:36;8.80;;;2.00;;
77016;SDS011;65949;53.132;17.930;2024-03-23T15:43:02;6.70;;;1.30;;
77016;SDS011;65949;53.132;17.930;2024-03-23T15:45:29;6.80;;;1.50;;
77016;SDS011;65949;53.132;17.930;2024-03-23T15:47:55;6.50;;;1.70;;